EGLL/LHR METAR and TAF weather

Enter ICAO airport designator
Station Type Date Time Source
EGLL METAR 2020/04/06 09:20 UTC NOAA

EGLL 060920Z AUTO 27007KT 9999 OVC024 11/09 Q1016 NOSIG


Station Type Date Time Source
EGLL Decoded METAR 2020/04/06 09:20 UTC NOAA

London / Heathrow Airport, United Kingdom (EGLL) 51-29N 000-27W 0M
Apr 06, 2020 - 05:20 AM EDT / 2020.04.06 0920 UTC
Wind: from the W (270 degrees) at 8 MPH (7 KT):0
Visibility: greater than 7 mile(s):0
Sky conditions: overcast
Temperature: 51 F (11 C)
Dew Point: 48 F (9 C)
Relative Humidity: 87%
Pressure (altimeter): 30.00 in. Hg (1016 hPa)
ob: EGLL 060920Z AUTO 27007KT 9999 OVC024 11/09 Q1016 NOSIG
cycle: 9

Station Type Date Time Source
EGLL TAF 2020/04/06 07:59 UTC NOAA

TAF
AMD EGLL 060755Z 0607/0712 21008KT 9999 SCT030
TEMPO 0607/0611 6000 -RA BKN012 PROB30
TEMPO 0607/0609 4000 RADZ BKN007
BECMG 0608/0611 27010KT PROB30
TEMPO 0614/0617 8000 -SHRA
BECMG 0621/0624 VRB03KT PROB30 0703/0708 5000 BR

Example: see airport list